Time;durP1;ratioP1;P1;durP2;ratioP2;P2;SDS_P1;SDS_P2;PMS_P1;PMS_P2;Temp;Humidity;BMP_temperature;BMP_pressure;BME280_temperature;BME280_humidity;BME280_pressure;Samples;Min_cycle;Max_cycle;Signal;HPM_P1;HPM_P2
2023/07/31 00:00:46;;;;;;;2.10;2.00;;;;;;;;;;5092329;28;20427;-58
2023/07/31 00:03:14;;;;;;;6.30;2.83;;;;;;;;;;5092674;28;20811;-58
2023/07/31 00:05:43;;;;;;;2.60;2.20;;;;;;;;;;5092458;28;20430;-59
2023/07/31 00:08:09;;;;;;;3.70;2.40;;;;;;;;;;5092549;28;20423;-58
2023/07/31 00:10:41;;;;;;;2.20;2.10;;;;;;;;;;5091232;28;22529;-59
2023/07/31 00:13:09;;;;;;;2.40;2.20;;;;;;;;;;5092301;28;20578;-59
2023/07/31 00:15:35;;;;;;;3.43;2.57;;;;;;;;;;5092391;28;20459;-58
2023/07/31 00:18:03;;;;;;;2.40;2.30;;;;;;;;;;5092167;28;20436;-58
2023/07/31 00:20:29;;;;;;;3.60;2.30;;;;;;;;;;5092172;28;20889;-59
2023/07/31 00:22:57;;;;;;;3.00;2.70;;;;;;;;;;5092384;28;20411;-58
2023/07/31 00:25:23;;;;;;;3.17;2.13;;;;;;;;;;5092224;28;20852;-58
2023/07/31 00:27:49;;;;;;;3.50;2.30;;;;;;;;;;5092395;28;20415;-58
2023/07/31 00:30:16;;;;;;;2.67;2.47;;;;;;;;;;5090902;28;20514;-58
2023/07/31 00:32:42;;;;;;;2.97;2.40;;;;;;;;;;5092292;28;20458;-58
2023/07/31 00:35:10;;;;;;;3.07;2.00;;;;;;;;;;5092209;28;20916;-58
2023/07/31 00:37:36;;;;;;;3.20;2.57;;;;;;;;;;5092014;28;20410;-58
2023/07/31 00:40:03;;;;;;;2.63;2.10;;;;;;;;;;5090913;28;20416;-58
2023/07/31 00:42:29;;;;;;;2.70;2.40;;;;;;;;;;5091992;28;20954;-58
2023/07/31 00:44:57;;;;;;;2.50;2.30;;;;;;;;;;5092081;28;20414;-58
2023/07/31 00:47:24;;;;;;;3.53;2.63;;;;;;;;;;5092006;28;20433;-58
2023/07/31 00:49:52;;;;;;;2.63;2.43;;;;;;;;;;5090690;28;20504;-57
2023/07/31 00:52:19;;;;;;;2.47;2.37;;;;;;;;;;5090558;28;20471;-58
2023/07/31 00:54:45;;;;;;;2.70;2.50;;;;;;;;;;5091995;28;20440;-58
2023/07/31 00:57:13;;;;;;;3.07;2.67;;;;;;;;;;5091788;28;20417;-58
2023/07/31 00:59:41;;;;;;;2.70;2.50;;;;;;;;;;5094917;28;20433;-58
2023/07/31 01:02:07;;;;;;;3.33;2.50;;;;;;;;;;5095708;28;20451;-58
2023/07/31 01:04:34;;;;;;;5.33;3.40;;;;;;;;;;5095481;28;20437;-58
2023/07/31 01:07:11;;;;;;;5.03;2.93;;;;;;;;;;5094471;28;20828;-58
2023/07/31 01:09:46;;;;;;;3.57;2.37;;;;;;;;;;5095561;28;20939;-58
2023/07/31 01:12:17;;;;;;;2.83;2.63;;;;;;;;;;5095402;28;20479;-59
2023/07/31 01:15:01;;;;;;;3.03;2.53;;;;;;;;;;5095521;28;20437;-58
2023/07/31 01:17:27;;;;;;;3.13;2.60;;;;;;;;;;5094217;28;20425;-58
2023/07/31 01:19:56;;;;;;;3.63;2.67;;;;;;;;;;5095439;28;20421;-58
2023/07/31 01:22:29;;;;;;;5.80;3.03;;;;;;;;;;5095205;28;20419;-59
2023/07/31 01:25:16;;;;;;;5.13;3.00;;;;;;;;;;5094102;28;20508;-59
2023/07/31 01:28:01;;;;;;;2.60;2.50;;;;;;;;;;5063800;28;20428;-58
2023/07/31 01:30:35;;;;;;;3.47;2.90;;;;;;;;;;5095181;28;20436;-58
2023/07/31 01:33:07;;;;;;;2.50;2.40;;;;;;;;;;5095085;28;20502;-58
2023/07/31 01:35:36;;;;;;;5.90;3.40;;;;;;;;;;5095030;28;20500;-58
2023/07/31 01:38:02;;;;;;;2.87;2.40;;;;;;;;;;5095005;28;20432;-58
2023/07/31 01:40:28;;;;;;;5.40;2.80;;;;;;;;;;5095055;28;20417;-58
2023/07/31 01:42:54;;;;;;;2.60;2.47;;;;;;;;;;5094975;28;20481;-58
2023/07/31 01:45:22;;;;;;;3.40;2.33;;;;;;;;;;5093604;28;20444;-58
2023/07/31 01:47:48;;;;;;;5.20;2.63;;;;;;;;;;5094586;28;20923;-58
2023/07/31 01:50:14;;;;;;;5.33;2.90;;;;;;;;;;5094917;28;20409;-58
2023/07/31 01:52:40;;;;;;;4.57;2.23;;;;;;;;;;5093021;28;21048;-59
2023/07/31 01:55:06;;;;;;;2.40;2.30;;;;;;;;;;5094882;28;20561;-59
2023/07/31 01:57:33;;;;;;;4.97;2.90;;;;;;;;;;5093427;28;20908;-59
2023/07/31 01:59:59;;;;;;;4.60;2.43;;;;;;;;;;5094682;28;20432;-59
2023/07/31 02:02:25;;;;;;;4.67;2.23;;;;;;;;;;5095057;28;20425;-60
2023/07/31 02:04:53;;;;;;;3.43;2.77;;;;;;;;;;5094545;28;20455;-60
2023/07/31 02:07:22;;;;;;;2.93;2.73;;;;;;;;;;5094601;28;20416;-60
2023/07/31 02:09:48;;;;;;;2.70;2.50;;;;;;;;;;5094269;28;20405;-59
2023/07/31 02:12:14;;;;;;;3.20;3.00;;;;;;;;;;5094292;28;20487;-59
2023/07/31 02:14:40;;;;;;;2.53;2.40;;;;;;;;;;5094170;28;20778;-59
2023/07/31 02:17:09;;;;;;;7.70;3.00;;;;;;;;;;5094426;28;20448;-59
2023/07/31 02:19:35;;;;;;;2.80;2.60;;;;;;;;;;5094385;28;20460;-59
2023/07/31 02:22:00;;;;;;;3.73;2.57;;;;;;;;;;5094254;28;20434;-60
2023/07/31 02:24:26;;;;;;;4.63;3.03;;;;;;;;;;5094189;28;20426;-59
2023/07/31 02:26:55;;;;;;;3.10;2.87;;;;;;;;;;5094081;28;20419;-60
2023/07/31 02:29:21;;;;;;;2.47;2.27;;;;;;;;;;5092916;28;20432;-60
2023/07/31 02:31:47;;;;;;;5.33;3.17;;;;;;;;;;5094136;28;20560;-60
2023/07/31 02:34:15;;;;;;;2.80;2.60;;;;;;;;;;5093966;28;20431;-59
2023/07/31 02:36:41;;;;;;;2.90;2.23;;;;;;;;;;5093902;28;20428;-59
2023/07/31 02:39:07;;;;;;;4.20;2.40;;;;;;;;;;5093902;28;20433;-59
2023/07/31 02:41:33;;;;;;;3.23;2.40;;;;;;;;;;5093986;28;20493;-59
2023/07/31 02:43:59;;;;;;;2.97;2.10;;;;;;;;;;5093733;28;20887;-59
2023/07/31 02:46:27;;;;;;;6.67;2.60;;;;;;;;;;5093829;28;20497;-59
2023/07/31 02:48:53;;;;;;;6.83;2.70;;;;;;;;;;5093799;28;20412;-59
2023/07/31 02:51:21;;;;;;;5.53;2.70;;;;;;;;;;5093641;28;20969;-59
2023/07/31 02:53:47;;;;;;;3.63;2.13;;;;;;;;;;5092442;28;20788;-60
2023/07/31 02:56:13;;;;;;;3.20;2.30;;;;;;;;;;5093542;28;20459;-59
2023/07/31 02:58:39;;;;;;;2.83;2.40;;;;;;;;;;5093660;28;20887;-60
2023/07/31 03:01:05;;;;;;;2.50;1.90;;;;;;;;;;5093463;28;20528;-59
2023/07/31 03:03:31;;;;;;;3.27;2.20;;;;;;;;;;5093453;28;20916;-60
2023/07/31 03:05:57;;;;;;;2.90;2.57;;;;;;;;;;5093157;28;20801;-59
2023/07/31 03:08:23;;;;;;;3.70;2.27;;;;;;;;;;5092081;28;20485;-59
2023/07/31 03:10:51;;;;;;;4.03;2.40;;;;;;;;;;5093228;28;20852;-59
2023/07/31 03:13:17;;;;;;;2.70;2.50;;;;;;;;;;5093117;28;20532;-59
2023/07/31 03:15:43;;;;;;;2.50;2.30;;;;;;;;;;5093338;28;20443;-60
2023/07/31 03:18:09;;;;;;;3.77;2.50;;;;;;;;;;5093167;28;20436;-60
2023/07/31 03:20:35;;;;;;;5.80;2.30;;;;;;;;;;5091507;28;20444;-59
2023/07/31 03:23:01;;;;;;;4.07;2.70;;;;;;;;;;5093014;28;20425;-59
2023/07/31 03:25:27;;;;;;;2.23;2.13;;;;;;;;;;5093116;28;20457;-59
2023/07/31 03:27:53;;;;;;;5.87;2.77;;;;;;;;;;5092890;28;20942;-59
2023/07/31 03:30:21;;;;;;;6.03;2.90;;;;;;;;;;5093054;28;20610;-60
2023/07/31 03:32:47;;;;;;;3.07;2.37;;;;;;;;;;5092917;28;20471;-60
2023/07/31 03:35:13;;;;;;;2.40;2.30;;;;;;;;;;5092915;28;20404;-60
2023/07/31 03:37:39;;;;;;;2.27;2.20;;;;;;;;;;5092849;28;20982;-60
2023/07/31 03:40:05;;;;;;;4.93;2.20;;;;;;;;;;5093064;28;20438;-60
2023/07/31 03:42:31;;;;;;;3.00;2.80;;;;;;;;;;5092848;28;20439;-60
2023/07/31 03:45:00;;;;;;;5.67;2.70;;;;;;;;;;5092740;28;20505;-60
2023/07/31 03:47:26;;;;;;;5.53;2.30;;;;;;;;;;5092727;28;20421;-60
2023/07/31 03:49:54;;;;;;;2.80;2.70;;;;;;;;;;5092806;28;20407;-59
2023/07/31 03:52:20;;;;;;;2.50;2.40;;;;;;;;;;5092618;28;20508;-60
2023/07/31 03:54:46;;;;;;;6.30;3.23;;;;;;;;;;5092647;28;20460;-59
2023/07/31 03:57:12;;;;;;;5.00;2.70;;;;;;;;;;5092392;28;20442;-60
2023/07/31 03:59:39;;;;;;;3.13;2.70;;;;;;;;;;5092462;28;20412;-60
2023/07/31 04:02:05;;;;;;;4.63;4.33;;;;;;;;;;5092462;28;20440;-60
2023/07/31 04:04:31;;;;;;;6.07;3.70;;;;;;;;;;5092516;28;20496;-60
2023/07/31 04:06:57;;;;;;;7.13;4.30;;;;;;;;;;5091222;28;20499;-60
2023/07/31 04:09:23;;;;;;;3.63;3.30;;;;;;;;;;5091194;28;20436;-60
2023/07/31 04:11:49;;;;;;;2.90;2.50;;;;;;;;;;5091093;28;20521;-60
2023/07/31 04:14:15;;;;;;;3.33;2.93;;;;;;;;;;5092316;28;20463;-60
2023/07/31 04:16:43;;;;;;;5.33;2.77;;;;;;;;;;5092347;28;20413;-60
2023/07/31 04:19:10;;;;;;;3.03;2.30;;;;;;;;;;5092465;28;20908;-60
2023/07/31 04:21:36;;;;;;;4.40;2.73;;;;;;;;;;5092254;28;20416;-60
2023/07/31 04:24:02;;;;;;;4.43;2.70;;;;;;;;;;5092388;28;20409;-60
2023/07/31 04:26:28;;;;;;;2.53;2.43;;;;;;;;;;5092356;28;20516;-60
2023/07/31 04:28:54;;;;;;;7.77;3.10;;;;;;;;;;5092460;28;20409;-60
2023/07/31 04:31:20;;;;;;;7.00;2.90;;;;;;;;;;5092220;28;20514;-60
2023/07/31 04:33:46;;;;;;;3.83;2.50;;;;;;;;;;5094013;28;20416;-60
2023/07/31 04:36:14;;;;;;;10.60;3.97;;;;;;;;;;5096184;28;20979;-60
2023/07/31 04:38:43;;;;;;;7.63;4.00;;;;;;;;;;5096804;28;20412;-60
2023/07/31 04:41:09;;;;;;;4.53;2.40;;;;;;;;;;5096276;28;20899;-60
2023/07/31 04:43:35;;;;;;;2.50;2.30;;;;;;;;;;5096398;28;20508;-61
2023/07/31 04:46:01;;;;;;;3.10;2.37;;;;;;;;;;5096136;28;20402;-61
2023/07/31 04:48:27;;;;;;;4.70;2.77;;;;;;;;;;5096094;28;20970;-61
2023/07/31 04:50:53;;;;;;;3.60;2.47;;;;;;;;;;5096108;28;20410;-60
2023/07/31 04:53:19;;;;;;;3.53;1.93;;;;;;;;;;5095920;28;20857;-60
2023/07/31 04:55:45;;;;;;;3.80;2.50;;;;;;;;;;5094778;28;20424;-60
2023/07/31 04:58:11;;;;;;;3.87;3.53;;;;;;;;;;5094444;28;20943;-61
2023/07/31 05:00:40;;;;;;;3.30;2.33;;;;;;;;;;5094599;28;20483;-61
2023/07/31 05:03:06;;;;;;;4.27;2.20;;;;;;;;;;5095854;28;20455;-60
2023/07/31 05:05:32;;;;;;;2.90;2.03;;;;;;;;;;5095905;28;20437;-60
2023/07/31 05:07:58;;;;;;;3.10;2.50;;;;;;;;;;5095734;28;20833;-61
2023/07/31 05:10:24;;;;;;;6.70;2.80;;;;;;;;;;5095514;28;20481;-60
2023/07/31 05:12:50;;;;;;;5.07;2.37;;;;;;;;;;5095508;28;20526;-60
2023/07/31 05:15:19;;;;;;;2.73;2.23;;;;;;;;;;5095610;28;20438;-61
2023/07/31 05:17:45;;;;;;;5.03;2.47;;;;;;;;;;5095494;28;20440;-60
2023/07/31 05:20:11;;;;;;;5.07;2.10;;;;;;;;;;5094183;28;20510;-61
2023/07/31 05:22:37;;;;;;;3.60;2.10;;;;;;;;;;5095420;28;20446;-61
2023/07/31 05:25:03;;;;;;;3.17;2.47;;;;;;;;;;5095374;28;20916;-61
2023/07/31 05:27:29;;;;;;;4.67;1.73;;;;;;;;;;5095434;28;20416;-60
2023/07/31 05:29:55;;;;;;;6.00;1.87;;;;;;;;;;5095334;28;20454;-61
2023/07/31 05:32:20;;;;;;;3.57;2.17;;;;;;;;;;5095085;28;20480;-61
2023/07/31 05:34:46;;;;;;;5.33;2.27;;;;;;;;;;5094022;28;20425;-61
2023/07/31 05:37:12;;;;;;;2.77;1.80;;;;;;;;;;5093679;28;20912;-61
2023/07/31 05:39:38;;;;;;;2.40;2.13;;;;;;;;;;5095191;28;20418;-61
2023/07/31 05:42:05;;;;;;;6.03;2.90;;;;;;;;;;5095160;28;20992;-61
2023/07/31 05:44:31;;;;;;;3.20;2.40;;;;;;;;;;5076655;28;20801;-61
2023/07/31 05:46:56;;;;;;;5.40;2.17;;;;;;;;;;5095360;28;20888;-61
2023/07/31 05:49:25;;;;;;;9.23;2.73;;;;;;;;;;5094853;28;20524;-61
2023/07/31 05:51:51;;;;;;;2.20;2.10;;;;;;;;;;5094906;28;20835;-61
2023/07/31 05:54:17;;;;;;;3.17;2.30;;;;;;;;;;5093610;28;20435;-61
2023/07/31 05:56:43;;;;;;;2.10;1.90;;;;;;;;;;5094927;28;20427;-61
2023/07/31 05:59:13;;;;;;;2.97;2.70;;;;;;;;;;5094704;28;20424;-61
2023/07/31 06:01:39;;;;;;;8.40;2.50;;;;;;;;;;5094608;28;20509;-61
2023/07/31 06:04:05;;;;;;;2.77;2.40;;;;;;;;;;5094643;28;20453;-61
2023/07/31 06:06:31;;;;;;;2.63;2.43;;;;;;;;;;5094779;28;20443;-61
2023/07/31 06:08:57;;;;;;;4.00;2.43;;;;;;;;;;5094672;28;20416;-62
2023/07/31 06:11:25;;;;;;;3.47;2.20;;;;;;;;;;5094450;28;20453;-61
2023/07/31 06:13:51;;;;;;;3.80;2.13;;;;;;;;;;5094745;28;20524;-62
2023/07/31 06:16:17;;;;;;;7.53;2.30;;;;;;;;;;5093005;28;20459;-62
2023/07/31 06:18:43;;;;;;;2.50;2.30;;;;;;;;;;5094499;28;20481;-60
2023/07/31 06:21:09;;;;;;;3.80;1.77;;;;;;;;;;5094473;28;20415;-61
2023/07/31 06:23:35;;;;;;;4.73;2.30;;;;;;;;;;5093329;28;20823;-60
2023/07/31 06:26:01;;;;;;;3.20;2.00;;;;;;;;;;5094387;28;20422;-60
2023/07/31 06:28:29;;;;;;;6.10;2.87;;;;;;;;;;5094148;28;20426;-61
2023/07/31 06:30:55;;;;;;;6.23;1.80;;;;;;;;;;5094183;28;20415;-61
2023/07/31 06:33:21;;;;;;;3.00;2.30;;;;;;;;;;5093865;28;20807;-61
2023/07/31 06:35:49;;;;;;;3.33;2.20;;;;;;;;;;5093887;28;20423;-61
2023/07/31 06:38:17;;;;;;;5.43;2.37;;;;;;;;;;5093938;28;20419;-62
2023/07/31 06:40:43;;;;;;;4.30;2.47;;;;;;;;;;5093698;28;20434;-61
2023/07/31 06:43:09;;;;;;;2.90;2.00;;;;;;;;;;5093761;28;20411;-61
2023/07/31 06:45:37;;;;;;;3.83;2.27;;;;;;;;;;5093617;28;20413;-61
2023/07/31 06:48:04;;;;;;;2.50;2.13;;;;;;;;;;5093211;28;20435;-61
2023/07/31 06:50:31;;;;;;;3.93;2.37;;;;;;;;;;5093618;28;20579;-61
2023/07/31 06:53:00;;;;;;;6.33;2.47;;;;;;;;;;5093499;28;20459;-61
2023/07/31 06:55:27;;;;;;;2.07;1.93;;;;;;;;;;5092915;28;20413;-61
2023/07/31 06:57:54;;;;;;;2.30;2.20;;;;;;;;;;5092225;28;20414;-61
2023/07/31 07:00:21;;;;;;;5.80;2.77;;;;;;;;;;5093330;28;20416;-61
2023/07/31 07:02:50;;;;;;;9.90;1.90;;;;;;;;;;5093160;28;20407;-61
2023/07/31 07:05:19;;;;;;;1.67;1.57;;;;;;;;;;5093287;28;20504;-61
2023/07/31 07:07:50;;;;;;;2.93;1.87;;;;;;;;;;5093365;28;20444;-61
2023/07/31 07:10:16;;;;;;;2.20;1.97;;;;;;;;;;5093290;28;20465;-61
2023/07/31 07:12:44;;;;;;;6.73;1.60;;;;;;;;;;5092882;28;20513;-61
2023/07/31 07:15:10;;;;;;;3.13;2.30;;;;;;;;;;5093207;28;20488;-61
2023/07/31 07:17:36;;;;;;;2.30;2.10;;;;;;;;;;5092955;28;20995;-61
2023/07/31 07:20:03;;;;;;;3.50;2.50;;;;;;;;;;5093320;28;20406;-60
2023/07/31 07:22:29;;;;;;;4.20;2.10;;;;;;;;;;5092866;28;20424;-61
2023/07/31 07:24:57;;;;;;;1.93;1.83;;;;;;;;;;5092861;28;20421;-61
2023/07/31 07:27:23;;;;;;;4.60;2.30;;;;;;;;;;5092796;28;20509;-61
2023/07/31 07:29:52;;;;;;;2.97;1.50;;;;;;;;;;5092759;28;20461;-61
2023/07/31 07:32:18;;;;;;;3.77;2.33;;;;;;;;;;5092662;28;20464;-61
2023/07/31 07:34:44;;;;;;;5.30;2.97;;;;;;;;;;5092570;28;20441;-61
2023/07/31 07:37:10;;;;;;;3.07;1.87;;;;;;;;;;5092593;28;20839;-61
2023/07/31 07:39:36;;;;;;;1.90;1.80;;;;;;;;;;5092523;28;20493;-61
2023/07/31 07:42:02;;;;;;;3.10;1.97;;;;;;;;;;5092457;28;20845;-61
2023/07/31 07:44:29;;;;;;;3.80;2.33;;;;;;;;;;5092729;28;20442;-61
2023/07/31 07:46:55;;;;;;;7.60;2.67;;;;;;;;;;5092608;28;20852;-61
2023/07/31 07:49:22;;;;;;;2.57;2.37;;;;;;;;;;5091233;28;20492;-61
2023/07/31 07:51:51;;;;;;;3.07;1.70;;;;;;;;;;5092523;28;20463;-61
2023/07/31 07:54:17;;;;;;;2.60;2.40;;;;;;;;;;5092185;28;20418;-61
2023/07/31 07:56:43;;;;;;;3.73;2.30;;;;;;;;;;5092096;28;20875;-61
2023/07/31 07:59:11;;;;;;;4.00;1.80;;;;;;;;;;5092352;28;20494;-61
2023/07/31 08:01:37;;;;;;;2.00;1.80;;;;;;;;;;5092355;28;20418;-61
2023/07/31 08:04:03;;;;;;;2.20;2.00;;;;;;;;;;5092609;28;20763;-61
2023/07/31 08:06:30;;;;;;;2.97;2.20;;;;;;;;;;5092227;28;20416;-61
2023/07/31 08:08:56;;;;;;;7.67;1.90;;;;;;;;;;5091953;28;20446;-61
2023/07/31 08:11:23;;;;;;;10.87;2.13;;;;;;;;;;5092112;28;20439;-61
2023/07/31 08:13:49;;;;;;;10.03;5.87;;;;;;;;;;5092152;28;20527;-61
2023/07/31 08:16:15;;;;;;;1.87;1.77;;;;;;;;;;5090928;28;20443;-62
2023/07/31 08:18:42;;;;;;;3.80;2.60;;;;;;;;;;5092295;28;20893;-61
2023/07/31 08:21:08;;;;;;;6.33;2.53;;;;;;;;;;5090675;28;20416;-61
2023/07/31 08:23:34;;;;;;;3.90;1.90;;;;;;;;;;5092567;28;20420;-61
2023/07/31 08:26:00;;;;;;;2.63;2.43;;;;;;;;;;5092333;28;20419;-61
2023/07/31 08:28:29;;;;;;;2.30;2.10;;;;;;;;;;5092111;28;20882;-61
2023/07/31 08:30:55;;;;;;;3.07;1.97;;;;;;;;;;5092009;28;20448;-62
2023/07/31 08:33:21;;;;;;;4.57;2.30;;;;;;;;;;5090707;28;20460;-61
2023/07/31 08:35:47;;;;;;;4.53;2.50;;;;;;;;;;5090771;28;20423;-62
2023/07/31 08:38:15;;;;;;;6.93;1.90;;;;;;;;;;5092056;28;21220;-61
2023/07/31 08:40:42;;;;;;;4.33;2.17;;;;;;;;;;5092021;28;20485;-62
2023/07/31 08:43:07;;;;;;;2.77;1.87;;;;;;;;;;5091881;28;20467;-62
2023/07/31 08:45:34;;;;;;;3.40;2.33;;;;;;;;;;5091798;28;20902;-62
2023/07/31 08:48:00;;;;;;;2.47;1.80;;;;;;;;;;5091817;28;20450;-62
2023/07/31 08:50:27;;;;;;;2.10;1.93;;;;;;;;;;5092075;28;20414;-62
2023/07/31 08:52:54;;;;;;;2.60;2.20;;;;;;;;;;5091760;28;20977;-62
2023/07/31 08:55:24;;;;;;;2.20;1.97;;;;;;;;;;5091864;28;20425;-62
2023/07/31 08:57:54;;;;;;;3.93;2.43;;;;;;;;;;5090639;28;20413;-62
2023/07/31 09:00:23;;;;;;;3.63;2.50;;;;;;;;;;5091780;28;20494;-62
2023/07/31 09:02:52;;;;;;;5.73;1.83;;;;;;;;;;5091849;28;20871;-62
2023/07/31 09:05:19;;;;;;;11.00;2.33;;;;;;;;;;5091631;28;20472;-62
2023/07/31 09:07:51;;;;;;;2.93;2.07;;;;;;;;;;5091819;28;20408;-62
2023/07/31 09:10:17;;;;;;;3.60;2.17;;;;;;;;;;5091435;28;20439;-62
2023/07/31 09:12:44;;;;;;;4.20;2.30;;;;;;;;;;5091013;28;20884;-62
2023/07/31 09:15:11;;;;;;;7.20;2.20;;;;;;;;;;5090178;28;20483;-62
2023/07/31 09:17:37;;;;;;;2.23;1.90;;;;;;;;;;5091704;28;20450;-62
2023/07/31 09:20:19;;;;;;;4.57;2.67;;;;;;;;;;5093697;28;20523;-62
2023/07/31 09:22:48;;;;;;;2.10;2.00;;;;;;;;;;5094107;28;20419;-62
2023/07/31 09:25:18;;;;;;;5.77;2.20;;;;;;;;;;5095182;28;20421;-62
2023/07/31 09:28:06;;;;;;;11.10;2.67;;;;;;;;;;5095193;28;20415;-62
2023/07/31 09:30:44;;;;;;;4.67;2.77;;;;;;;;;;5095355;28;20891;-62
2023/07/31 09:33:10;;;;;;;2.60;1.83;;;;;;;;;;5094834;28;20506;-62
2023/07/31 09:35:37;;;;;;;4.10;2.30;;;;;;;;;;5094771;28;20458;-62
2023/07/31 09:38:08;;;;;;;3.57;2.17;;;;;;;;;;5094868;28;20459;-62
2023/07/31 09:40:38;;;;;;;3.93;2.50;;;;;;;;;;5095100;28;20468;-62
2023/07/31 09:43:05;;;;;;;2.03;1.80;;;;;;;;;;5094839;28;20488;-61
2023/07/31 09:45:34;;;;;;;4.93;2.43;;;;;;;;;;5093672;28;20469;-62
2023/07/31 09:48:00;;;;;;;4.20;2.63;;;;;;;;;;5094818;28;20502;-62
2023/07/31 09:50:26;;;;;;;3.73;2.30;;;;;;;;;;5094800;28;20923;-62
2023/07/31 09:52:52;;;;;;;5.70;2.30;;;;;;;;;;5094726;28;20464;-62
2023/07/31 09:55:19;;;;;;;2.77;2.57;;;;;;;;;;5094392;28;20552;-59
2023/07/31 09:57:47;;;;;;;3.37;2.40;;;;;;;;;;5092649;28;20946;-58
2023/07/31 10:00:13;;;;;;;2.40;2.20;;;;;;;;;;5094154;28;20967;-58
2023/07/31 10:02:39;;;;;;;5.50;2.50;;;;;;;;;;5094328;28;20450;-55
2023/07/31 10:05:06;;;;;;;4.00;2.47;;;;;;;;;;5094106;28;20520;-56
2023/07/31 10:07:40;;;;;;;4.27;2.53;;;;;;;;;;5094366;28;20778;-57
2023/07/31 10:10:08;;;;;;;2.40;2.20;;;;;;;;;;5094228;28;20414;-55
2023/07/31 10:12:34;;;;;;;3.93;2.50;;;;;;;;;;5094005;28;20843;-56
2023/07/31 10:15:01;;;;;;;7.33;2.47;;;;;;;;;;5094449;28;20403;-57
2023/07/31 10:17:27;;;;;;;3.97;2.40;;;;;;;;;;5093809;28;20430;-57
2023/07/31 10:19:53;;;;;;;8.00;2.50;;;;;;;;;;5093740;28;20424;-56
2023/07/31 10:22:20;;;;;;;2.37;2.17;;;;;;;;;;5093766;28;20504;-57
2023/07/31 10:24:46;;;;;;;5.30;2.23;;;;;;;;;;5093479;28;20428;-57
2023/07/31 10:27:17;;;;;;;5.27;2.37;;;;;;;;;;5092904;28;20414;-57
2023/07/31 10:29:44;;;;;;;5.13;2.30;;;;;;;;;;5092892;28;20419;-56
2023/07/31 10:32:11;;;;;;;5.13;2.57;;;;;;;;;;5093022;28;20468;-57
2023/07/31 10:34:39;;;;;;;4.63;2.17;;;;;;;;;;5093100;28;20466;-57
2023/07/31 10:37:27;;;;;;;4.40;2.47;;;;;;;;;;5093547;28;20405;-59
2023/07/31 10:40:13;;;;;;;5.60;2.23;;;;;;;;;;5093654;28;20966;-57
2023/07/31 10:42:47;;;;;;;4.67;2.50;;;;;;;;;;5093435;28;20798;-57
2023/07/31 10:45:26;;;;;;;5.13;2.30;;;;;;;;;;5092176;28;20552;-57
2023/07/31 10:47:58;;;;;;;2.67;2.23;;;;;;;;;;5093690;28;20413;-56
2023/07/31 10:50:24;;;;;;;4.30;2.27;;;;;;;;;;5093486;28;20437;-56
2023/07/31 10:52:51;;;;;;;3.23;2.80;;;;;;;;;;5093402;28;20469;-57
2023/07/31 10:55:29;;;;;;;6.07;2.30;;;;;;;;;;5093533;28;20434;-57
2023/07/31 10:57:55;;;;;;;2.93;2.40;;;;;;;;;;5093530;28;20420;-57
2023/07/31 11:00:31;;;;;;;3.87;2.30;;;;;;;;;;5093793;28;20425;-57
2023/07/31 11:03:00;;;;;;;3.13;2.50;;;;;;;;;;5093421;28;20423;-57
2023/07/31 11:05:49;;;;;;;7.10;2.73;;;;;;;;;;5093237;28;20493;-56
2023/07/31 11:08:16;;;;;;;2.80;2.60;;;;;;;;;;5085844;28;20469;-57
2023/07/31 11:10:49;;;;;;;3.00;2.57;;;;;;;;;;5093220;28;20884;-57
2023/07/31 11:13:15;;;;;;;2.83;2.63;;;;;;;;;;5093194;28;20476;-57
2023/07/31 11:15:46;;;;;;;5.13;2.40;;;;;;;;;;5093298;28;20409;-57
2023/07/31 11:18:12;;;;;;;3.00;2.30;;;;;;;;;;5092918;28;20527;-57
2023/07/31 11:20:38;;;;;;;5.27;2.97;;;;;;;;;;5093104;28;20411;-57
2023/07/31 11:23:07;;;;;;;3.23;2.60;;;;;;;;;;5092528;28;20527;-57
2023/07/31 11:25:33;;;;;;;2.37;2.17;;;;;;;;;;5092816;28;20401;-57
2023/07/31 11:28:03;;;;;;;7.13;2.80;;;;;;;;;;5092242;28;20713;-58
2023/07/31 11:30:29;;;;;;;4.73;2.30;;;;;;;;;;5092640;28;20409;-58
2023/07/31 11:32:55;;;;;;;6.90;2.80;;;;;;;;;;5092363;28;20465;-58
2023/07/31 11:35:22;;;;;;;4.97;1.80;;;;;;;;;;5093007;28;20498;-58
2023/07/31 11:37:48;;;;;;;4.67;2.57;;;;;;;;;;5092931;28;20547;-58
2023/07/31 11:40:14;;;;;;;2.67;2.33;;;;;;;;;;5092769;28;20528;-58
2023/07/31 11:42:40;;;;;;;4.47;2.60;;;;;;;;;;5092460;28;20436;-58
2023/07/31 11:45:07;;;;;;;3.17;2.57;;;;;;;;;;5093093;28;20569;-58
2023/07/31 11:47:37;;;;;;;10.63;2.40;;;;;;;;;;5092796;28;20459;-57
2023/07/31 11:50:08;;;;;;;2.40;2.20;;;;;;;;;;5092725;28;20428;-58
2023/07/31 11:52:38;;;;;;;2.63;2.40;;;;;;;;;;5092490;28;20455;-58
2023/07/31 11:55:04;;;;;;;2.93;2.60;;;;;;;;;;5092929;28;20405;-58
2023/07/31 11:57:31;;;;;;;3.53;2.50;;;;;;;;;;5092597;28;20405;-57
2023/07/31 11:59:57;;;;;;;3.03;2.80;;;;;;;;;;5091374;28;20432;-56
2023/07/31 12:02:23;;;;;;;3.77;2.43;;;;;;;;;;5092652;28;20459;-56
2023/07/31 12:04:49;;;;;;;4.83;2.20;;;;;;;;;;5092649;28;20423;-57
2023/07/31 12:07:15;;;;;;;5.70;2.80;;;;;;;;;;5092608;28;20431;-56
2023/07/31 12:09:51;;;;;;;2.57;2.37;;;;;;;;;;5092432;28;20411;-56
2023/07/31 12:12:24;;;;;;;7.60;2.07;;;;;;;;;;5092070;28;20465;-58
2023/07/31 12:14:50;;;;;;;3.03;2.13;;;;;;;;;;5092128;28;20934;-57
2023/07/31 12:17:17;;;;;;;3.00;2.50;;;;;;;;;;5091000;28;20508;-58
2023/07/31 12:19:43;;;;;;;5.40;2.80;;;;;;;;;;5092245;28;20430;-58
2023/07/31 12:22:16;;;;;;;2.63;2.30;;;;;;;;;;5091960;28;20446;-57
2023/07/31 12:24:44;;;;;;;2.70;2.47;;;;;;;;;;5092141;28;20859;-55
2023/07/31 12:27:14;;;;;;;2.93;2.50;;;;;;;;;;5092175;28;20461;-58
2023/07/31 12:29:40;;;;;;;2.93;2.60;;;;;;;;;;5092135;28;20413;-58
2023/07/31 12:32:22;;;;;;;6.27;2.57;;;;;;;;;;5091920;28;20502;-58
2023/07/31 12:34:51;;;;;;;7.80;3.00;;;;;;;;;;5091944;28;20419;-57
2023/07/31 12:37:17;;;;;;;2.93;2.77;;;;;;;;;;5092208;28;20561;-56
2023/07/31 12:39:43;;;;;;;2.50;2.30;;;;;;;;;;5090823;28;20549;-57
2023/07/31 12:42:12;;;;;;;4.10;2.83;;;;;;;;;;5091983;28;20946;-57
2023/07/31 12:44:38;;;;;;;2.37;2.27;;;;;;;;;;5092181;28;20423;-57
2023/07/31 12:47:04;;;;;;;7.93;3.13;;;;;;;;;;5091828;28;20446;-58
2023/07/31 12:49:30;;;;;;;9.07;3.17;;;;;;;;;;5091988;28;20428;-57
2023/07/31 12:51:56;;;;;;;4.17;2.70;;;;;;;;;;5091839;28;21044;-58
2023/07/31 12:54:22;;;;;;;3.17;2.87;;;;;;;;;;5093123;28;20414;-57
2023/07/31 12:56:48;;;;;;;4.87;2.77;;;;;;;;;;5095963;28;20631;-57
2023/07/31 12:59:16;;;;;;;3.23;2.90;;;;;;;;;;5096086;28;20792;-58
2023/07/31 13:01:44;;;;;;;3.97;2.87;;;;;;;;;;5095851;28;20408;-58
2023/07/31 13:04:10;;;;;;;3.07;2.60;;;;;;;;;;5095592;28;20922;-58
2023/07/31 13:06:36;;;;;;;2.67;2.47;;;;;;;;;;5095769;28;20468;-58
2023/07/31 13:09:02;;;;;;;2.97;2.77;;;;;;;;;;5095606;28;20881;-57
2023/07/31 13:11:28;;;;;;;8.57;2.73;;;;;;;;;;5095489;28;20518;-57
2023/07/31 13:13:54;;;;;;;3.00;2.67;;;;;;;;;;5095521;28;20500;-57
2023/07/31 13:16:23;;;;;;;3.40;3.10;;;;;;;;;;5094139;28;20893;-58
2023/07/31 13:18:53;;;;;;;7.87;2.53;;;;;;;;;;5095612;28;20416;-58
2023/07/31 13:21:19;;;;;;;4.00;2.50;;;;;;;;;;5095067;28;20438;-56
2023/07/31 13:23:45;;;;;;;2.83;2.67;;;;;;;;;;5095394;28;20414;-56
2023/07/31 13:26:13;;;;;;;3.80;3.00;;;;;;;;;;5095147;28;20446;-55
2023/07/31 13:28:39;;;;;;;3.10;2.83;;;;;;;;;;5094015;28;20422;-57
2023/07/31 13:31:05;;;;;;;3.10;2.83;;;;;;;;;;5094060;28;20798;-57
2023/07/31 13:33:34;;;;;;;4.30;2.80;;;;;;;;;;5093668;28;20467;-56
2023/07/31 13:36:02;;;;;;;3.30;2.70;;;;;;;;;;5095328;28;20411;-56
2023/07/31 13:38:28;;;;;;;4.23;2.67;;;;;;;;;;5095405;28;20462;-57
2023/07/31 13:40:54;;;;;;;2.80;2.57;;;;;;;;;;5095532;28;20447;-57
2023/07/31 13:43:20;;;;;;;3.07;2.77;;;;;;;;;;5095263;28;20432;-57
2023/07/31 13:45:48;;;;;;;2.93;2.83;;;;;;;;;;5093822;28;20427;-57
2023/07/31 13:48:14;;;;;;;2.60;2.50;;;;;;;;;;5094769;28;20467;-57
2023/07/31 13:50:40;;;;;;;2.97;2.87;;;;;;;;;;5094898;28;20842;-57
2023/07/31 13:53:10;;;;;;;3.00;2.70;;;;;;;;;;5094730;28;20459;-58
2023/07/31 13:55:36;;;;;;;3.10;2.90;;;;;;;;;;5094794;28;20817;-58
2023/07/31 13:58:02;;;;;;;4.90;2.90;;;;;;;;;;5094604;28;20417;-58
2023/07/31 14:00:35;;;;;;;2.70;2.60;;;;;;;;;;5094290;28;20458;-57
2023/07/31 14:03:01;;;;;;;4.00;2.80;;;;;;;;;;5094625;28;20923;-58
2023/07/31 14:05:27;;;;;;;2.97;2.60;;;;;;;;;;5094104;28;20446;-58
2023/07/31 14:07:53;;;;;;;3.03;2.83;;;;;;;;;;5094853;28;20416;-57
2023/07/31 14:10:21;;;;;;;13.13;2.43;;;;;;;;;;5094226;28;20473;-56
2023/07/31 14:12:47;;;;;;;4.23;2.77;;;;;;;;;;5094157;28;20468;-58
2023/07/31 14:15:13;;;;;;;4.50;2.77;;;;;;;;;;5094216;28;20812;-58
2023/07/31 14:17:42;;;;;;;3.60;2.43;;;;;;;;;;5093982;28;20436;-57
2023/07/31 14:20:08;;;;;;;3.13;2.57;;;;;;;;;;5094093;28;20478;-57
2023/07/31 14:22:34;;;;;;;4.40;3.10;;;;;;;;;;5094210;28;20443;-57
2023/07/31 14:25:00;;;;;;;2.43;2.33;;;;;;;;;;5094237;28;20495;-57
2023/07/31 14:27:29;;;;;;;2.23;2.13;;;;;;;;;;5092757;28;20488;-57
2023/07/31 14:29:55;;;;;;;4.07;2.37;;;;;;;;;;5094057;28;20501;-56
2023/07/31 14:32:25;;;;;;;2.53;2.43;;;;;;;;;;5094263;28;20874;-56
2023/07/31 14:34:51;;;;;;;6.07;2.47;;;;;;;;;;5094248;28;20400;-58
2023/07/31 14:37:17;;;;;;;2.30;2.20;;;;;;;;;;5092641;28;20439;-58
2023/07/31 14:39:45;;;;;;;2.50;2.27;;;;;;;;;;5093862;28;20437;-57
2023/07/31 14:42:16;;;;;;;2.40;2.20;;;;;;;;;;5093840;28;20437;-56
2023/07/31 14:44:42;;;;;;;2.30;2.20;;;;;;;;;;5093583;28;20433;-58